sensor_id;sensor_type;location;lat;lon;timestamp;temperature;humidity
11091;DHT22;5599;52.210;21.046;2023-07-13T00:02:15;22.40;99.90
11091;DHT22;5599;52.210;21.046;2023-07-13T00:04:44;22.40;99.90
11091;DHT22;5599;52.210;21.046;2023-07-13T00:07:13;22.40;99.90
11091;DHT22;5599;52.210;21.046;2023-07-13T00:09:43;22.40;99.90
11091;DHT22;5599;52.210;21.046;2023-07-13T00:12:23;22.40;99.90
11091;DHT22;5599;52.210;21.046;2023-07-13T00:14:52;22.40;99.90
11091;DHT22;5599;52.210;21.046;2023-07-13T00:17:23;22.40;99.90
11091;DHT22;5599;52.210;21.046;2023-07-13T00:19:53;22.40;82.90
11091;DHT22;5599;52.210;21.046;2023-07-13T00:22:23;22.30;99.90
11091;DHT22;5599;52.210;21.046;2023-07-13T00:24:53;22.20;1.00
11091;DHT22;5599;52.210;21.046;2023-07-13T00:27:24;22.10;99.90
11091;DHT22;5599;52.210;21.046;2023-07-13T00:29:54;22.10;1.00
11091;DHT22;5599;52.210;21.046;2023-07-13T00:32:25;22.10;76.20
11091;DHT22;5599;52.210;21.046;2023-07-13T00:34:54;22.10;99.90
11091;DHT22;5599;52.210;21.046;2023-07-13T00:37:24;22.10;99.90
11091;DHT22;5599;52.210;21.046;2023-07-13T00:39:53;22.10;99.90
11091;DHT22;5599;52.210;21.046;2023-07-13T00:42:22;22.10;99.90
11091;DHT22;5599;52.210;21.046;2023-07-13T00:45:06;22.10;99.90
11091;DHT22;5599;52.210;21.046;2023-07-13T00:47:37;22.10;99.90
11091;DHT22;5599;52.210;21.046;2023-07-13T00:50:10;22.10;99.90
11091;DHT22;5599;52.210;21.046;2023-07-13T00:52:53;22.10;99.90
11091;DHT22;5599;52.210;21.046;2023-07-13T00:55:25;22.10;99.90
11091;DHT22;5599;52.210;21.046;2023-07-13T00:57:55;22.10;99.90
11091;DHT22;5599;52.210;21.046;2023-07-13T01:00:25;22.10;99.90
11091;DHT22;5599;52.210;21.046;2023-07-13T01:02:57;22.10;99.90
11091;DHT22;5599;52.210;21.046;2023-07-13T01:05:26;22.00;1.00
11091;DHT22;5599;52.210;21.046;2023-07-13T01:07:55;22.10;99.90
11091;DHT22;5599;52.210;21.046;2023-07-13T01:10:25;22.00;1.00
11091;DHT22;5599;52.210;21.046;2023-07-13T01:12:55;22.00;1.00
11091;DHT22;5599;52.210;21.046;2023-07-13T01:15:36;22.00;1.00
11091;DHT22;5599;52.210;21.046;2023-07-13T01:18:11;22.00;99.90
11091;DHT22;5599;52.210;21.046;2023-07-13T01:20:48;22.10;1.00
11091;DHT22;5599;52.210;21.046;2023-07-13T01:23:18;22.00;99.90
11091;DHT22;5599;52.210;21.046;2023-07-13T01:25:48;22.00;1.00
11091;DHT22;5599;52.210;21.046;2023-07-13T01:28:18;22.00;1.00
11091;DHT22;5599;52.210;21.046;2023-07-13T01:30:47;22.00;1.00
11091;DHT22;5599;52.210;21.046;2023-07-13T01:33:17;22.10;1.00
11091;DHT22;5599;52.210;21.046;2023-07-13T01:35:48;22.10;1.00
11091;DHT22;5599;52.210;21.046;2023-07-13T01:38:19;22.10;1.00
11091;DHT22;5599;52.210;21.046;2023-07-13T01:40:49;22.10;1.00
11091;DHT22;5599;52.210;21.046;2023-07-13T01:43:18;22.00;1.00
11091;DHT22;5599;52.210;21.046;2023-07-13T01:45:48;22.00;1.00
11091;DHT22;5599;52.210;21.046;2023-07-13T01:48:18;22.00;1.00
11091;DHT22;5599;52.210;21.046;2023-07-13T01:50:50;22.00;1.00
11091;DHT22;5599;52.210;21.046;2023-07-13T01:53:19;22.00;1.00
11091;DHT22;5599;52.210;21.046;2023-07-13T01:55:48;22.00;1.00
11091;DHT22;5599;52.210;21.046;2023-07-13T01:58:17;22.00;1.00
11091;DHT22;5599;52.210;21.046;2023-07-13T02:00:48;22.00;1.00
11091;DHT22;5599;52.210;21.046;2023-07-13T02:03:18;22.00;29.20
11091;DHT22;5599;52.210;21.046;2023-07-13T02:05:49;22.00;99.90
11091;DHT22;5599;52.210;21.046;2023-07-13T02:08:18;22.00;99.90
11091;DHT22;5599;52.210;21.046;2023-07-13T02:10:47;22.00;99.90
11091;DHT22;5599;52.210;21.046;2023-07-13T02:13:16;22.00;99.90
11091;DHT22;5599;52.210;21.046;2023-07-13T02:15:46;22.00;81.10
11091;DHT22;5599;52.210;21.046;2023-07-13T02:18:15;21.90;99.90
11091;DHT22;5599;52.210;21.046;2023-07-13T02:20:45;21.90;99.90
11091;DHT22;5599;52.210;21.046;2023-07-13T02:23:16;21.90;99.90
11091;DHT22;5599;52.210;21.046;2023-07-13T02:25:46;21.90;99.90
11091;DHT22;5599;52.210;21.046;2023-07-13T02:28:15;22.00;99.90
11091;DHT22;5599;52.210;21.046;2023-07-13T02:30:45;21.90;99.90
11091;DHT22;5599;52.210;21.046;2023-07-13T02:33:14;22.00;99.90
11091;DHT22;5599;52.210;21.046;2023-07-13T02:35:43;22.00;99.90
11091;DHT22;5599;52.210;21.046;2023-07-13T02:38:12;21.90;99.90
11091;DHT22;5599;52.210;21.046;2023-07-13T02:40:43;21.90;99.90
11091;DHT22;5599;52.210;21.046;2023-07-13T02:43:12;22.00;99.90
11091;DHT22;5599;52.210;21.046;2023-07-13T02:45:43;21.90;99.90
11091;DHT22;5599;52.210;21.046;2023-07-13T02:48:14;21.90;99.90
11091;DHT22;5599;52.210;21.046;2023-07-13T02:50:44;22.00;99.90
11091;DHT22;5599;52.210;21.046;2023-07-13T02:53:14;22.00;99.90
11091;DHT22;5599;52.210;21.046;2023-07-13T02:55:44;22.00;99.90
11091;DHT22;5599;52.210;21.046;2023-07-13T02:58:15;22.00;99.90
11091;DHT22;5599;52.210;21.046;2023-07-13T03:00:45;22.00;99.90
11091;DHT22;5599;52.210;21.046;2023-07-13T03:03:15;22.00;99.90
11091;DHT22;5599;52.210;21.046;2023-07-13T03:05:45;22.00;99.90
11091;DHT22;5599;52.210;21.046;2023-07-13T03:08:22;21.90;99.90
11091;DHT22;5599;52.210;21.046;2023-07-13T03:11:01;21.90;99.90
11091;DHT22;5599;52.210;21.046;2023-07-13T03:13:33;22.10;1.00
11091;DHT22;5599;52.210;21.046;2023-07-13T03:16:05;22.10;1.00
11091;DHT22;5599;52.210;21.046;2023-07-13T03:18:35;22.10;1.00
11091;DHT22;5599;52.210;21.046;2023-07-13T03:21:08;22.10;13.50
11091;DHT22;5599;52.210;21.046;2023-07-13T03:23:38;22.10;1.00
11091;DHT22;5599;52.210;21.046;2023-07-13T03:26:11;22.10;1.00
11091;DHT22;5599;52.210;21.046;2023-07-13T03:28:41;22.10;18.20
11091;DHT22;5599;52.210;21.046;2023-07-13T03:31:17;22.10;1.00
11091;DHT22;5599;52.210;21.046;2023-07-13T03:33:47;22.20;1.00
11091;DHT22;5599;52.210;21.046;2023-07-13T03:36:18;22.20;1.00
11091;DHT22;5599;52.210;21.046;2023-07-13T03:38:52;22.20;1.00
11091;DHT22;5599;52.210;21.046;2023-07-13T03:41:27;22.30;1.00
11091;DHT22;5599;52.210;21.046;2023-07-13T03:43:57;22.40;1.00
11091;DHT22;5599;52.210;21.046;2023-07-13T03:46:27;22.70;1.00
11091;DHT22;5599;52.210;21.046;2023-07-13T03:48:57;22.90;90.80
11091;DHT22;5599;52.210;21.046;2023-07-13T03:51:26;23.10;99.90
11091;DHT22;5599;52.210;21.046;2023-07-13T03:53:56;23.50;1.00
11091;DHT22;5599;52.210;21.046;2023-07-13T03:56:26;23.80;1.00
11091;DHT22;5599;52.210;21.046;2023-07-13T03:58:57;24.20;1.00
11091;DHT22;5599;52.210;21.046;2023-07-13T04:01:26;24.50;99.90
11091;DHT22;5599;52.210;21.046;2023-07-13T04:03:55;25.00;1.00
11091;DHT22;5599;52.210;21.046;2023-07-13T04:06:31;25.40;7.80
11091;DHT22;5599;52.210;21.046;2023-07-13T04:09:01;25.80;99.90
11091;DHT22;5599;52.210;21.046;2023-07-13T04:11:35;26.10;1.00
11091;DHT22;5599;52.210;21.046;2023-07-13T04:14:06;26.60;84.00
11091;DHT22;5599;52.210;21.046;2023-07-13T04:16:35;27.00;1.00
11091;DHT22;5599;52.210;21.046;2023-07-13T04:19:04;27.30;99.90
11091;DHT22;5599;52.210;21.046;2023-07-13T04:21:33;27.60;99.90
11091;DHT22;5599;52.210;21.046;2023-07-13T04:24:03;27.90;5.40
11091;DHT22;5599;52.210;21.046;2023-07-13T04:26:33;28.20;1.00
11091;DHT22;5599;52.210;21.046;2023-07-13T04:29:03;28.60;1.00
11091;DHT22;5599;52.210;21.046;2023-07-13T04:31:33;29.20;99.90
11091;DHT22;5599;52.210;21.046;2023-07-13T04:34:02;29.60;99.90
11091;DHT22;5599;52.210;21.046;2023-07-13T04:36:32;29.80;99.90
11091;DHT22;5599;52.210;21.046;2023-07-13T04:39:01;29.70;99.90
11091;DHT22;5599;52.210;21.046;2023-07-13T04:41:30;29.60;99.90
11091;DHT22;5599;52.210;21.046;2023-07-13T04:44:00;29.30;99.90
11091;DHT22;5599;52.210;21.046;2023-07-13T04:46:30;29.30;99.90
11091;DHT22;5599;52.210;21.046;2023-07-13T04:48:59;29.10;99.90
11091;DHT22;5599;52.210;21.046;2023-07-13T04:51:31;28.70;99.90
11091;DHT22;5599;52.210;21.046;2023-07-13T04:54:00;28.20;99.90
11091;DHT22;5599;52.210;21.046;2023-07-13T04:56:29;27.70;1.00
11091;DHT22;5599;52.210;21.046;2023-07-13T04:59:00;27.20;1.00
11091;DHT22;5599;52.210;21.046;2023-07-13T05:01:29;26.90;82.60
11091;DHT22;5599;52.210;21.046;2023-07-13T05:03:59;26.60;99.90
11091;DHT22;5599;52.210;21.046;2023-07-13T05:06:28;26.30;1.00
11091;DHT22;5599;52.210;21.046;2023-07-13T05:08:58;25.90;99.90
11091;DHT22;5599;52.210;21.046;2023-07-13T05:11:27;25.70;1.00
11091;DHT22;5599;52.210;21.046;2023-07-13T05:13:56;25.60;99.90
11091;DHT22;5599;52.210;21.046;2023-07-13T05:16:27;25.50;1.00
11091;DHT22;5599;52.210;21.046;2023-07-13T05:18:57;25.30;99.20
11091;DHT22;5599;52.210;21.046;2023-07-13T05:21:26;25.30;99.90
11091;DHT22;5599;52.210;21.046;2023-07-13T05:23:56;25.20;1.00
11091;DHT22;5599;52.210;21.046;2023-07-13T05:26:37;25.30;99.90
11091;DHT22;5599;52.210;21.046;2023-07-13T05:29:06;25.30;99.90
11091;DHT22;5599;52.210;21.046;2023-07-13T05:31:37;25.20;99.90
11091;DHT22;5599;52.210;21.046;2023-07-13T05:34:08;25.20;1.00
11091;DHT22;5599;52.210;21.046;2023-07-13T05:36:37;25.40;99.90
11091;DHT22;5599;52.210;21.046;2023-07-13T05:39:06;25.50;99.90
11091;DHT22;5599;52.210;21.046;2023-07-13T05:41:36;25.70;13.90
11091;DHT22;5599;52.210;21.046;2023-07-13T05:44:05;25.80;1.00
11091;DHT22;5599;52.210;21.046;2023-07-13T05:46:34;26.10;99.90
11091;DHT22;5599;52.210;21.046;2023-07-13T05:49:05;26.20;1.00
11091;DHT22;5599;52.210;21.046;2023-07-13T05:51:34;26.60;99.90
11091;DHT22;5599;52.210;21.046;2023-07-13T05:54:04;27.00;1.00
11091;DHT22;5599;52.210;21.046;2023-07-13T05:56:33;27.60;1.00
11091;DHT22;5599;52.210;21.046;2023-07-13T05:59:02;27.80;87.10
11091;DHT22;5599;52.210;21.046;2023-07-13T06:01:31;27.70;1.00
11091;DHT22;5599;52.210;21.046;2023-07-13T06:04:01;27.70;1.00
11091;DHT22;5599;52.210;21.046;2023-07-13T06:06:32;27.60;8.70
11091;DHT22;5599;52.210;21.046;2023-07-13T06:09:01;27.30;99.90
11091;DHT22;5599;52.210;21.046;2023-07-13T06:11:30;27.30;99.90
11091;DHT22;5599;52.210;21.046;2023-07-13T06:14:00;27.10;99.90
11091;DHT22;5599;52.210;21.046;2023-07-13T06:16:29;27.10;99.90
11091;DHT22;5599;52.210;21.046;2023-07-13T06:18:58;27.10;99.90
11091;DHT22;5599;52.210;21.046;2023-07-13T06:21:27;27.20;99.90
11091;DHT22;5599;52.210;21.046;2023-07-13T06:23:58;27.20;99.90
11091;DHT22;5599;52.210;21.046;2023-07-13T06:26:27;27.30;99.90
11091;DHT22;5599;52.210;21.046;2023-07-13T06:28:57;27.40;1.00
11091;DHT22;5599;52.210;21.046;2023-07-13T06:31:26;27.70;1.00
11091;DHT22;5599;52.210;21.046;2023-07-13T06:33:55;27.80;1.00
11091;DHT22;5599;52.210;21.046;2023-07-13T06:36:25;28.00;1.00
11091;DHT22;5599;52.210;21.046;2023-07-13T06:38:54;28.10;1.00
11091;DHT22;5599;52.210;21.046;2023-07-13T06:41:25;28.20;99.90
11091;DHT22;5599;52.210;21.046;2023-07-13T06:43:54;28.40;99.90
11091;DHT22;5599;52.210;21.046;2023-07-13T06:46:23;28.70;99.90
11091;DHT22;5599;52.210;21.046;2023-07-13T06:48:52;28.60;99.90
11091;DHT22;5599;52.210;21.046;2023-07-13T06:51:22;28.50;99.90
11091;DHT22;5599;52.210;21.046;2023-07-13T06:53:51;29.10;99.90
11091;DHT22;5599;52.210;21.046;2023-07-13T06:56:20;29.20;34.70
11091;DHT22;5599;52.210;21.046;2023-07-13T06:58:51;29.40;6.80
11091;DHT22;5599;52.210;21.046;2023-07-13T07:01:20;29.80;27.00
11091;DHT22;5599;52.210;21.046;2023-07-13T07:03:49;30.00;1.00
11091;DHT22;5599;52.210;21.046;2023-07-13T07:06:21;30.50;1.00
11091;DHT22;5599;52.210;21.046;2023-07-13T07:08:52;30.60;1.00
11091;DHT22;5599;52.210;21.046;2023-07-13T07:11:22;31.00;1.00
11091;DHT22;5599;52.210;21.046;2023-07-13T07:13:54;31.80;1.00
11091;DHT22;5599;52.210;21.046;2023-07-13T07:16:25;32.20;1.00
11091;DHT22;5599;52.210;21.046;2023-07-13T07:18:54;32.40;1.00
11091;DHT22;5599;52.210;21.046;2023-07-13T07:21:23;32.60;1.00
11091;DHT22;5599;52.210;21.046;2023-07-13T07:23:53;33.10;1.00
11091;DHT22;5599;52.210;21.046;2023-07-13T07:26:22;33.80;1.00
11091;DHT22;5599;52.210;21.046;2023-07-13T07:28:57;34.30;1.00
11091;DHT22;5599;52.210;21.046;2023-07-13T07:31:29;34.30;1.00
11091;DHT22;5599;52.210;21.046;2023-07-13T07:34:01;34.30;1.00
11091;DHT22;5599;52.210;21.046;2023-07-13T07:36:31;33.80;1.00
11091;DHT22;5599;52.210;21.046;2023-07-13T07:39:03;33.00;1.00
11091;DHT22;5599;52.210;21.046;2023-07-13T07:41:32;33.00;1.00
11091;DHT22;5599;52.210;21.046;2023-07-13T07:44:06;33.60;1.00
11091;DHT22;5599;52.210;21.046;2023-07-13T07:46:38;34.40;1.00
11091;DHT22;5599;52.210;21.046;2023-07-13T07:49:08;34.50;1.00
11091;DHT22;5599;52.210;21.046;2023-07-13T07:51:38;33.80;1.00
11091;DHT22;5599;52.210;21.046;2023-07-13T07:54:07;33.20;1.00
11091;DHT22;5599;52.210;21.046;2023-07-13T07:56:41;33.90;1.00
11091;DHT22;5599;52.210;21.046;2023-07-13T07:59:14;34.10;1.00
11091;DHT22;5599;52.210;21.046;2023-07-13T08:01:46;34.30;1.00
11091;DHT22;5599;52.210;21.046;2023-07-13T08:04:21;34.90;1.00
11091;DHT22;5599;52.210;21.046;2023-07-13T08:06:53;35.30;1.00
11091;DHT22;5599;52.210;21.046;2023-07-13T08:09:24;34.30;1.00
11091;DHT22;5599;52.210;21.046;2023-07-13T08:11:53;34.50;1.00
11091;DHT22;5599;52.210;21.046;2023-07-13T08:14:27;34.60;1.00
11091;DHT22;5599;52.210;21.046;2023-07-13T08:17:09;34.80;1.00
11091;DHT22;5599;52.210;21.046;2023-07-13T08:19:38;35.40;1.00
11091;DHT22;5599;52.210;21.046;2023-07-13T08:22:07;35.90;34.90
11091;DHT22;5599;52.210;21.046;2023-07-13T08:24:36;35.90;73.10
11091;DHT22;5599;52.210;21.046;2023-07-13T08:27:06;35.50;25.30
11091;DHT22;5599;52.210;21.046;2023-07-13T08:29:37;35.60;16.40
11091;DHT22;5599;52.210;21.046;2023-07-13T08:32:07;35.60;50.10
11091;DHT22;5599;52.210;21.046;2023-07-13T08:34:38;35.50;99.90
11091;DHT22;5599;52.210;21.046;2023-07-13T08:37:08;35.20;39.80
11091;DHT22;5599;52.210;21.046;2023-07-13T08:39:37;34.00;64.60
11091;DHT22;5599;52.210;21.046;2023-07-13T08:42:31;33.80;91.30
11091;DHT22;5599;52.210;21.046;2023-07-13T08:45:19;32.60;1.00
11091;DHT22;5599;52.210;21.046;2023-07-13T08:47:52;32.50;99.90
11091;DHT22;5599;52.210;21.046;2023-07-13T08:50:27;32.40;1.00
11091;DHT22;5599;52.210;21.046;2023-07-13T08:52:58;32.90;1.00
11091;DHT22;5599;52.210;21.046;2023-07-13T08:55:29;33.30;1.00
11091;DHT22;5599;52.210;21.046;2023-07-13T08:58:05;33.70;1.00
11091;DHT22;5599;52.210;21.046;2023-07-13T09:00:45;33.80;1.00
11091;DHT22;5599;52.210;21.046;2023-07-13T09:03:21;33.80;1.00
11091;DHT22;5599;52.210;21.046;2023-07-13T09:05:54;33.80;1.00
11091;DHT22;5599;52.210;21.046;2023-07-13T09:08:37;34.10;1.00
11091;DHT22;5599;52.210;21.046;2023-07-13T09:11:23;33.70;1.00
11091;DHT22;5599;52.210;21.046;2023-07-13T09:13:59;34.00;1.00
11091;DHT22;5599;52.210;21.046;2023-07-13T09:16:31;34.20;1.00
11091;DHT22;5599;52.210;21.046;2023-07-13T09:19:05;34.80;1.00
11091;DHT22;5599;52.210;21.046;2023-07-13T09:21:39;35.30;1.00
11091;DHT22;5599;52.210;21.046;2023-07-13T09:24:30;35.70;1.00
11091;DHT22;5599;52.210;21.046;2023-07-13T09:27:13;35.90;1.00
11091;DHT22;5599;52.210;21.046;2023-07-13T09:29:48;36.00;1.00
11091;DHT22;5599;52.210;21.046;2023-07-13T09:32:22;36.00;1.00
11091;DHT22;5599;52.210;21.046;2023-07-13T09:34:53;35.40;1.00
11091;DHT22;5599;52.210;21.046;2023-07-13T09:37:28;34.40;1.00
11091;DHT22;5599;52.210;21.046;2023-07-13T09:40:00;33.80;1.00
11091;DHT22;5599;52.210;21.046;2023-07-13T09:42:32;33.30;1.00
11091;DHT22;5599;52.210;21.046;2023-07-13T09:45:02;32.90;1.00
11091;DHT22;5599;52.210;21.046;2023-07-13T09:47:39;31.20;1.00
11091;DHT22;5599;52.210;21.046;2023-07-13T09:50:14;29.80;1.00
11091;DHT22;5599;52.210;21.046;2023-07-13T09:52:46;28.20;1.00
11091;DHT22;5599;52.210;21.046;2023-07-13T09:55:27;27.20;1.00
11091;DHT22;5599;52.210;21.046;2023-07-13T09:57:57;27.10;1.00
11091;DHT22;5599;52.210;21.046;2023-07-13T10:00:29;26.90;1.00
11091;DHT22;5599;52.210;21.046;2023-07-13T10:03:03;27.00;1.00
11091;DHT22;5599;52.210;21.046;2023-07-13T10:05:40;26.90;1.00
11091;DHT22;5599;52.210;21.046;2023-07-13T10:08:22;26.90;1.00
11091;DHT22;5599;52.210;21.046;2023-07-13T10:10:54;26.70;1.00
11091;DHT22;5599;52.210;21.046;2023-07-13T10:13:33;26.20;1.00
11091;DHT22;5599;52.210;21.046;2023-07-13T10:16:06;25.70;1.00
11091;DHT22;5599;52.210;21.046;2023-07-13T10:18:43;25.20;1.00
11091;DHT22;5599;52.210;21.046;2023-07-13T10:21:16;25.00;1.00
11091;DHT22;5599;52.210;21.046;2023-07-13T10:24:06;25.00;1.00
11091;DHT22;5599;52.210;21.046;2023-07-13T10:26:52;24.90;55.60
11091;DHT22;5599;52.210;21.046;2023-07-13T10:29:25;24.80;1.00
11091;DHT22;5599;52.210;21.046;2023-07-13T10:31:56;24.60;72.80
11091;DHT22;5599;52.210;21.046;2023-07-13T10:34:28;24.60;99.90
11091;DHT22;5599;52.210;21.046;2023-07-13T10:37:00;24.60;24.00
11091;DHT22;5599;52.210;21.046;2023-07-13T10:39:30;24.40;99.90
11091;DHT22;5599;52.210;21.046;2023-07-13T10:42:01;24.30;99.90
11091;DHT22;5599;52.210;21.046;2023-07-13T10:44:33;24.20;99.90
11091;DHT22;5599;52.210;21.046;2023-07-13T10:47:06;24.20;86.00
11091;DHT22;5599;52.210;21.046;2023-07-13T10:49:38;24.20;99.90
11091;DHT22;5599;52.210;21.046;2023-07-13T10:52:41;24.10;99.90
11091;DHT22;5599;52.210;21.046;2023-07-13T10:55:33;24.10;99.90
11091;DHT22;5599;52.210;21.046;2023-07-13T10:58:13;24.20;99.90
11091;DHT22;5599;52.210;21.046;2023-07-13T11:00:46;24.20;1.00
11091;DHT22;5599;52.210;21.046;2023-07-13T11:03:18;24.20;99.90
11091;DHT22;5599;52.210;21.046;2023-07-13T11:06:03;24.10;99.90
11091;DHT22;5599;52.210;21.046;2023-07-13T11:08:34;23.90;1.00
11091;DHT22;5599;52.210;21.046;2023-07-13T11:14:26;24.10;99.90
11091;DHT22;5599;52.210;21.046;2023-07-13T11:16:56;24.10;16.00
11091;DHT22;5599;52.210;21.046;2023-07-13T11:19:40;24.10;1.00
11091;DHT22;5599;52.210;21.046;2023-07-13T11:22:21;24.00;99.90
11091;DHT22;5599;52.210;21.046;2023-07-13T11:24:59;24.00;22.00
11091;DHT22;5599;52.210;21.046;2023-07-13T11:27:38;23.90;1.00
11091;DHT22;5599;52.210;21.046;2023-07-13T11:30:24;23.80;24.20
11091;DHT22;5599;52.210;21.046;2023-07-13T11:33:04;23.80;1.00
11091;DHT22;5599;52.210;21.046;2023-07-13T11:35:46;23.70;99.50
11091;DHT22;5599;52.210;21.046;2023-07-13T11:38:23;23.70;99.90
11091;DHT22;5599;52.210;21.046;2023-07-13T11:41:00;23.50;1.00
11091;DHT22;5599;52.210;21.046;2023-07-13T11:43:30;23.50;99.90
11091;DHT22;5599;52.210;21.046;2023-07-13T11:46:15;23.50;1.00
11091;DHT22;5599;52.210;21.046;2023-07-13T11:48:45;23.40;1.00
11091;DHT22;5599;52.210;21.046;2023-07-13T11:51:20;23.40;99.90
11091;DHT22;5599;52.210;21.046;2023-07-13T11:53:53;23.40;1.00
11091;DHT22;5599;52.210;21.046;2023-07-13T11:56:25;23.40;1.00
11091;DHT22;5599;52.210;21.046;2023-07-13T11:58:56;23.40;1.00
11091;DHT22;5599;52.210;21.046;2023-07-13T12:01:28;23.30;1.00
11091;DHT22;5599;52.210;21.046;2023-07-13T12:04:02;23.10;1.00
11091;DHT22;5599;52.210;21.046;2023-07-13T12:06:33;22.90;1.00
11091;DHT22;5599;52.210;21.046;2023-07-13T12:09:12;22.80;1.00
11091;DHT22;5599;52.210;21.046;2023-07-13T12:11:42;22.70;1.00
11091;DHT22;5599;52.210;21.046;2023-07-13T12:14:15;22.60;21.50
11091;DHT22;5599;52.210;21.046;2023-07-13T12:16:46;22.60;1.00
11091;DHT22;5599;52.210;21.046;2023-07-13T12:19:18;22.50;1.00
11091;DHT22;5599;52.210;21.046;2023-07-13T12:21:52;22.60;1.00
11091;DHT22;5599;52.210;21.046;2023-07-13T12:24:24;22.70;13.80
11091;DHT22;5599;52.210;21.046;2023-07-13T12:26:55;22.80;99.90
11091;DHT22;5599;52.210;21.046;2023-07-13T12:29:24;23.00;99.90
11091;DHT22;5599;52.210;21.046;2023-07-13T12:31:54;23.00;99.90
11091;DHT22;5599;52.210;21.046;2023-07-13T12:34:25;23.00;1.00
11091;DHT22;5599;52.210;21.046;2023-07-13T12:36:56;23.10;99.90
11091;DHT22;5599;52.210;21.046;2023-07-13T12:39:32;23.10;99.90
11091;DHT22;5599;52.210;21.046;2023-07-13T12:42:20;23.10;99.90
11091;DHT22;5599;52.210;21.046;2023-07-13T12:44:53;22.80;99.90
11091;DHT22;5599;52.210;21.046;2023-07-13T12:47:23;22.60;99.90
11091;DHT22;5599;52.210;21.046;2023-07-13T12:49:55;22.60;99.90
11091;DHT22;5599;52.210;21.046;2023-07-13T12:52:29;22.70;99.90
11091;DHT22;5599;52.210;21.046;2023-07-13T12:55:07;22.70;99.90
11091;DHT22;5599;52.210;21.046;2023-07-13T12:57:49;22.60;99.90
11091;DHT22;5599;52.210;21.046;2023-07-13T13:00:24;22.40;99.90
11091;DHT22;5599;52.210;21.046;2023-07-13T13:02:55;22.40;1.00
11091;DHT22;5599;52.210;21.046;2023-07-13T13:05:45;22.40;1.00
11091;DHT22;5599;52.210;21.046;2023-07-13T13:08:14;22.60;99.90
11091;DHT22;5599;52.210;21.046;2023-07-13T13:10:45;22.70;99.90
11091;DHT22;5599;52.210;21.046;2023-07-13T13:13:14;22.80;99.90
11091;DHT22;5599;52.210;21.046;2023-07-13T13:15:43;22.80;99.90
11091;DHT22;5599;52.210;21.046;2023-07-13T13:18:16;22.90;99.90
11091;DHT22;5599;52.210;21.046;2023-07-13T13:20:46;22.90;95.00
11091;DHT22;5599;52.210;21.046;2023-07-13T13:23:17;22.90;99.90
11091;DHT22;5599;52.210;21.046;2023-07-13T13:25:49;22.90;99.90
11091;DHT22;5599;52.210;21.046;2023-07-13T13:28:20;22.90;99.00
11091;DHT22;5599;52.210;21.046;2023-07-13T13:30:50;22.90;1.00
11091;DHT22;5599;52.210;21.046;2023-07-13T13:33:21;22.90;1.00
11091;DHT22;5599;52.210;21.046;2023-07-13T13:35:50;23.00;1.00
11091;DHT22;5599;52.210;21.046;2023-07-13T13:38:23;22.80;1.00
11091;DHT22;5599;52.210;21.046;2023-07-13T13:40:54;22.90;99.90
11091;DHT22;5599;52.210;21.046;2023-07-13T13:43:25;22.90;99.90
11091;DHT22;5599;52.210;21.046;2023-07-13T13:45:56;22.70;99.90
11091;DHT22;5599;52.210;21.046;2023-07-13T13:48:32;22.70;99.90
11091;DHT22;5599;52.210;21.046;2023-07-13T13:51:13;22.40;1.00
11091;DHT22;5599;52.210;21.046;2023-07-13T13:53:44;22.20;1.00
11091;DHT22;5599;52.210;21.046;2023-07-13T13:56:15;22.30;1.00
11091;DHT22;5599;52.210;21.046;2023-07-13T13:58:47;22.40;1.00
11091;DHT22;5599;52.210;21.046;2023-07-13T14:01:19;22.30;1.00
11091;DHT22;5599;52.210;21.046;2023-07-13T14:03:48;22.30;1.00
11091;DHT22;5599;52.210;21.046;2023-07-13T14:06:19;22.30;1.00
11091;DHT22;5599;52.210;21.046;2023-07-13T14:08:48;22.30;1.00
11091;DHT22;5599;52.210;21.046;2023-07-13T14:11:21;22.40;1.00
11091;DHT22;5599;52.210;21.046;2023-07-13T14:13:53;22.40;1.00
11091;DHT22;5599;52.210;21.046;2023-07-13T14:16:27;22.50;1.00
11091;DHT22;5599;52.210;21.046;2023-07-13T14:19:00;22.60;1.00
11091;DHT22;5599;52.210;21.046;2023-07-13T14:21:30;22.60;1.00
11091;DHT22;5599;52.210;21.046;2023-07-13T14:23:59;22.70;1.00
11091;DHT22;5599;52.210;21.046;2023-07-13T14:26:32;22.70;1.00
11091;DHT22;5599;52.210;21.046;2023-07-13T14:29:08;22.70;1.00
11091;DHT22;5599;52.210;21.046;2023-07-13T14:31:41;22.70;1.00
11091;DHT22;5599;52.210;21.046;2023-07-13T14:34:11;22.80;1.00
11091;DHT22;5599;52.210;21.046;2023-07-13T14:36:43;22.80;1.00
11091;DHT22;5599;52.210;21.046;2023-07-13T14:39:16;22.90;1.00
11091;DHT22;5599;52.210;21.046;2023-07-13T14:41:50;23.00;99.90
11091;DHT22;5599;52.210;21.046;2023-07-13T14:44:21;22.80;99.90
11091;DHT22;5599;52.210;21.046;2023-07-13T14:46:52;22.90;1.00
11091;DHT22;5599;52.210;21.046;2023-07-13T14:49:25;23.00;99.90
11091;DHT22;5599;52.210;21.046;2023-07-13T14:51:55;23.00;99.90
11091;DHT22;5599;52.210;21.046;2023-07-13T14:54:25;23.10;1.00
11091;DHT22;5599;52.210;21.046;2023-07-13T14:56:56;23.10;99.90
11091;DHT22;5599;52.210;21.046;2023-07-13T14:59:26;23.20;99.90
11091;DHT22;5599;52.210;21.046;2023-07-13T15:01:56;23.20;1.00
11091;DHT22;5599;52.210;21.046;2023-07-13T15:04:25;23.10;99.90
11091;DHT22;5599;52.210;21.046;2023-07-13T15:06:56;23.20;99.90
11091;DHT22;5599;52.210;21.046;2023-07-13T15:09:26;23.10;99.90
11091;DHT22;5599;52.210;21.046;2023-07-13T15:11:59;23.00;1.00
11091;DHT22;5599;52.210;21.046;2023-07-13T15:14:28;22.90;1.00
11091;DHT22;5599;52.210;21.046;2023-07-13T15:17:00;22.80;1.00
11091;DHT22;5599;52.210;21.046;2023-07-13T15:19:31;22.80;99.90
11091;DHT22;5599;52.210;21.046;2023-07-13T15:22:00;22.80;52.10
11091;DHT22;5599;52.210;21.046;2023-07-13T15:24:31;22.70;99.90
11091;DHT22;5599;52.210;21.046;2023-07-13T15:27:01;22.50;1.00
11091;DHT22;5599;52.210;21.046;2023-07-13T15:29:31;22.50;71.80
11091;DHT22;5599;52.210;21.046;2023-07-13T15:32:00;22.50;99.90
11091;DHT22;5599;52.210;21.046;2023-07-13T15:34:29;22.50;99.90
11091;DHT22;5599;52.210;21.046;2023-07-13T15:36:59;22.40;1.00
11091;DHT22;5599;52.210;21.046;2023-07-13T15:39:28;22.30;1.00
11091;DHT22;5599;52.210;21.046;2023-07-13T15:41:59;22.20;1.00
11091;DHT22;5599;52.210;21.046;2023-07-13T15:44:31;22.20;1.00
11091;DHT22;5599;52.210;21.046;2023-07-13T15:47:00;22.20;99.90
11091;DHT22;5599;52.210;21.046;2023-07-13T15:49:31;22.30;1.00
11091;DHT22;5599;52.210;21.046;2023-07-13T15:52:00;22.20;1.00
11091;DHT22;5599;52.210;21.046;2023-07-13T15:54:29;22.20;99.90
11091;DHT22;5599;52.210;21.046;2023-07-13T15:57:01;22.10;99.90
11091;DHT22;5599;52.210;21.046;2023-07-13T15:59:32;22.20;99.90
11091;DHT22;5599;52.210;21.046;2023-07-13T16:02:03;22.10;99.90
11091;DHT22;5599;52.210;21.046;2023-07-13T16:04:35;22.10;99.90
11091;DHT22;5599;52.210;21.046;2023-07-13T16:07:04;22.10;99.90
11091;DHT22;5599;52.210;21.046;2023-07-13T16:09:34;22.20;99.90
11091;DHT22;5599;52.210;21.046;2023-07-13T16:12:08;22.20;99.90